sensor_id;sensor_type;location;lat;lon;timestamp;P1;durP1;ratioP1;P2;durP2;ratioP2
2544;SDS011;36212;48.838;9.142;2023-12-20T00:02:06;4.28;;;4.07;;
2544;SDS011;36212;48.838;9.142;2023-12-20T00:04:39;4.10;;;3.90;;
2544;SDS011;36212;48.838;9.142;2023-12-20T00:07:11;3.88;;;3.78;;
2544;SDS011;36212;48.838;9.142;2023-12-20T00:09:45;4.20;;;4.00;;
2544;SDS011;36212;48.838;9.142;2023-12-20T00:12:18;4.03;;;3.83;;
2544;SDS011;36212;48.838;9.142;2023-12-20T00:14:50;4.50;;;4.30;;
2544;SDS011;36212;48.838;9.142;2023-12-20T00:17:22;4.20;;;4.00;;
2544;SDS011;36212;48.838;9.142;2023-12-20T00:19:54;4.28;;;4.07;;
2544;SDS011;36212;48.838;9.142;2023-12-20T00:22:27;4.60;;;4.40;;
2544;SDS011;36212;48.838;9.142;2023-12-20T00:24:59;4.00;;;3.90;;
2544;SDS011;36212;48.838;9.142;2023-12-20T00:27:32;4.65;;;4.45;;
2544;SDS011;36212;48.838;9.142;2023-12-20T00:30:06;4.80;;;4.40;;
2544;SDS011;36212;48.838;9.142;2023-12-20T00:54:34;5.18;;;4.93;;
2544;SDS011;36212;48.838;9.142;2023-12-20T00:57:06;5.30;;;5.10;;
2544;SDS011;36212;48.838;9.142;2023-12-20T00:59:39;5.13;;;4.90;;
2544;SDS011;36212;48.838;9.142;2023-12-20T01:02:11;4.70;;;4.50;;
2544;SDS011;36212;48.838;9.142;2023-12-20T01:04:43;5.30;;;5.00;;
2544;SDS011;36212;48.838;9.142;2023-12-20T01:07:16;6.50;;;6.10;;
2544;SDS011;36212;48.838;9.142;2023-12-20T01:09:48;5.30;;;5.10;;
2544;SDS011;36212;48.838;9.142;2023-12-20T01:12:21;5.70;;;5.50;;
2544;SDS011;36212;48.838;9.142;2023-12-20T01:14:53;5.72;;;5.43;;
2544;SDS011;36212;48.838;9.142;2023-12-20T01:17:25;5.72;;;5.43;;
2544;SDS011;36212;48.838;9.142;2023-12-20T01:19:58;6.43;;;6.03;;
2544;SDS011;36212;48.838;9.142;2023-12-20T01:22:31;6.60;;;6.20;;
2544;SDS011;36212;48.838;9.142;2023-12-20T01:25:05;6.35;;;6.05;;
2544;SDS011;36212;48.838;9.142;2023-12-20T01:27:38;7.10;;;6.70;;
2544;SDS011;36212;48.838;9.142;2023-12-20T01:30:11;7.57;;;7.15;;
2544;SDS011;36212;48.838;9.142;2023-12-20T01:32:44;6.70;;;6.40;;
2544;SDS011;36212;48.838;9.142;2023-12-20T01:35:16;7.78;;;7.38;;
2544;SDS011;36212;48.838;9.142;2023-12-20T01:37:49;7.43;;;6.78;;
2544;SDS011;36212;48.838;9.142;2023-12-20T01:40:21;7.30;;;7.00;;
2544;SDS011;36212;48.838;9.142;2023-12-20T01:42:59;7.38;;;6.95;;
2544;SDS011;36212;48.838;9.142;2023-12-20T01:45:38;8.02;;;7.57;;
2544;SDS011;36212;48.838;9.142;2023-12-20T01:48:10;7.40;;;7.10;;
2544;SDS011;36212;48.838;9.142;2023-12-20T01:50:45;7.55;;;7.25;;
2544;SDS011;36212;48.838;9.142;2023-12-20T01:53:18;8.55;;;8.15;;
2544;SDS011;36212;48.838;9.142;2023-12-20T01:55:55;8.93;;;8.55;;
2544;SDS011;36212;48.838;9.142;2023-12-20T01:58:29;8.80;;;8.50;;
2544;SDS011;36212;48.838;9.142;2023-12-20T02:01:02;9.52;;;9.13;;
2544;SDS011;36212;48.838;9.142;2023-12-20T02:03:35;8.75;;;8.35;;
2544;SDS011;36212;48.838;9.142;2023-12-20T02:06:10;9.80;;;9.30;;
2544;SDS011;36212;48.838;9.142;2023-12-20T02:08:43;9.18;;;8.77;;
2544;SDS011;36212;48.838;9.142;2023-12-20T02:11:16;9.95;;;9.55;;
2544;SDS011;36212;48.838;9.142;2023-12-20T02:13:48;9.13;;;8.73;;
2544;SDS011;36212;48.838;9.142;2023-12-20T02:16:21;9.25;;;8.75;;
2544;SDS011;36212;48.838;9.142;2023-12-20T02:18:54;9.98;;;9.48;;
2544;SDS011;36212;48.838;9.142;2023-12-20T02:21:33;10.55;;;10.05;;
2544;SDS011;36212;48.838;9.142;2023-12-20T02:24:08;10.52;;;10.13;;
2544;SDS011;36212;48.838;9.142;2023-12-20T02:26:40;11.10;;;10.60;;
2544;SDS011;36212;48.838;9.142;2023-12-20T02:29:17;10.85;;;10.35;;
2544;SDS011;36212;48.838;9.142;2023-12-20T02:31:50;11.48;;;11.05;;
2544;SDS011;36212;48.838;9.142;2023-12-20T02:34:22;10.63;;;10.23;;
2544;SDS011;36212;48.838;9.142;2023-12-20T02:36:54;9.82;;;9.43;;
2544;SDS011;36212;48.838;9.142;2023-12-20T02:39:28;10.60;;;10.23;;
2544;SDS011;36212;48.838;9.142;2023-12-20T02:42:03;12.85;;;12.15;;
2544;SDS011;36212;48.838;9.142;2023-12-20T02:44:35;11.95;;;11.55;;
2544;SDS011;36212;48.838;9.142;2023-12-20T02:47:08;13.10;;;12.70;;
2544;SDS011;36212;48.838;9.142;2023-12-20T02:49:40;14.13;;;13.63;;
2544;SDS011;36212;48.838;9.142;2023-12-20T02:52:13;15.80;;;15.30;;
2544;SDS011;36212;48.838;9.142;2023-12-20T02:54:45;16.75;;;16.15;;
2544;SDS011;36212;48.838;9.142;2023-12-20T02:57:17;13.60;;;13.20;;
2544;SDS011;36212;48.838;9.142;2023-12-20T02:59:49;16.73;;;16.23;;
2544;SDS011;36212;48.838;9.142;2023-12-20T03:02:21;17.15;;;16.35;;
2544;SDS011;36212;48.838;9.142;2023-12-20T03:04:54;16.30;;;15.80;;
2544;SDS011;36212;48.838;9.142;2023-12-20T03:07:26;16.75;;;16.25;;
2544;SDS011;36212;48.838;9.142;2023-12-20T03:09:59;15.77;;;15.35;;
2544;SDS011;36212;48.838;9.142;2023-12-20T03:12:50;15.68;;;15.18;;
2544;SDS011;36212;48.838;9.142;2023-12-20T03:15:22;15.02;;;14.63;;
2544;SDS011;36212;48.838;9.142;2023-12-20T03:17:55;15.45;;;15.00;;
2544;SDS011;36212;48.838;9.142;2023-12-20T03:20:29;14.85;;;14.35;;
2544;SDS011;36212;48.838;9.142;2023-12-20T03:23:06;15.60;;;15.15;;
2544;SDS011;36212;48.838;9.142;2023-12-20T03:25:38;15.63;;;15.20;;
2544;SDS011;36212;48.838;9.142;2023-12-20T03:28:10;13.80;;;13.40;;
2544;SDS011;36212;48.838;9.142;2023-12-20T03:30:44;13.13;;;12.75;;
2544;SDS011;36212;48.838;9.142;2023-12-20T03:33:17;13.70;;;13.20;;
2544;SDS011;36212;48.838;9.142;2023-12-20T03:35:49;13.25;;;12.85;;
2544;SDS011;36212;48.838;9.142;2023-12-20T03:38:22;11.95;;;11.65;;
2544;SDS011;36212;48.838;9.142;2023-12-20T03:40:57;12.60;;;12.20;;
2544;SDS011;36212;48.838;9.142;2023-12-20T03:43:30;13.27;;;12.05;;
2544;SDS011;36212;48.838;9.142;2023-12-20T03:46:03;10.85;;;10.55;;
2544;SDS011;36212;48.838;9.142;2023-12-20T03:48:38;11.95;;;11.65;;
2544;SDS011;36212;48.838;9.142;2023-12-20T03:51:10;10.32;;;10.02;;
2544;SDS011;36212;48.838;9.142;2023-12-20T03:53:43;10.52;;;10.23;;
2544;SDS011;36212;48.838;9.142;2023-12-20T03:56:15;10.02;;;9.80;;
2544;SDS011;36212;48.838;9.142;2023-12-20T03:58:47;11.00;;;10.70;;
2544;SDS011;36212;48.838;9.142;2023-12-20T04:01:20;11.27;;;10.98;;
2544;SDS011;36212;48.838;9.142;2023-12-20T04:03:52;9.85;;;9.65;;
2544;SDS011;36212;48.838;9.142;2023-12-20T04:06:25;11.18;;;10.88;;
2544;SDS011;36212;48.838;9.142;2023-12-20T04:08:58;10.45;;;10.15;;
2544;SDS011;36212;48.838;9.142;2023-12-20T04:11:32;10.75;;;10.45;;
2544;SDS011;36212;48.838;9.142;2023-12-20T04:14:07;10.10;;;9.80;;
2544;SDS011;36212;48.838;9.142;2023-12-20T04:16:55;9.77;;;9.57;;
2544;SDS011;36212;48.838;9.142;2023-12-20T04:19:50;9.40;;;9.20;;
2544;SDS011;36212;48.838;9.142;2023-12-20T04:34:08;10.32;;;10.02;;
2544;SDS011;36212;48.838;9.142;2023-12-20T04:37:18;10.77;;;10.48;;
2544;SDS011;36212;48.838;9.142;2023-12-20T04:39:55;11.15;;;10.85;;
2544;SDS011;36212;48.838;9.142;2023-12-20T07:14:40;24.70;;;23.67;;
2544;SDS011;36212;48.838;9.142;2023-12-20T07:17:12;29.98;;;28.77;;
2544;SDS011;36212;48.838;9.142;2023-12-20T07:19:46;30.35;;;29.17;;
2544;SDS011;36212;48.838;9.142;2023-12-20T07:22:19;26.05;;;25.02;;
2544;SDS011;36212;48.838;9.142;2023-12-20T07:24:53;27.58;;;26.55;;
2544;SDS011;36212;48.838;9.142;2023-12-20T07:27:27;27.42;;;26.33;;
2544;SDS011;36212;48.838;9.142;2023-12-20T07:30:03;27.08;;;26.08;;
2544;SDS011;36212;48.838;9.142;2023-12-20T07:32:38;27.30;;;26.20;;
2544;SDS011;36212;48.838;9.142;2023-12-20T07:35:15;28.60;;;27.50;;
2544;SDS011;36212;48.838;9.142;2023-12-20T07:37:49;27.70;;;26.60;;
2544;SDS011;36212;48.838;9.142;2023-12-20T07:40:22;25.77;;;24.67;;
2544;SDS011;36212;48.838;9.142;2023-12-20T07:42:55;26.60;;;25.50;;
2544;SDS011;36212;48.838;9.142;2023-12-20T07:45:28;21.23;;;20.42;;
2544;SDS011;36212;48.838;9.142;2023-12-20T07:48:01;22.05;;;21.15;;
2544;SDS011;36212;48.838;9.142;2023-12-20T07:50:36;18.00;;;17.00;;
2544;SDS011;36212;48.838;9.142;2023-12-20T07:53:09;18.30;;;17.60;;
2544;SDS011;36212;48.838;9.142;2023-12-20T07:55:42;16.13;;;15.43;;
2544;SDS011;36212;48.838;9.142;2023-12-20T07:58:15;16.75;;;16.05;;
2544;SDS011;36212;48.838;9.142;2023-12-20T08:00:47;15.25;;;14.55;;
2544;SDS011;36212;48.838;9.142;2023-12-20T08:03:20;14.85;;;14.25;;
2544;SDS011;36212;48.838;9.142;2023-12-20T08:05:52;13.88;;;13.27;;
2544;SDS011;36212;48.838;9.142;2023-12-20T08:08:26;13.90;;;13.30;;
2544;SDS011;36212;48.838;9.142;2023-12-20T08:11:00;13.98;;;13.27;;
2544;SDS011;36212;48.838;9.142;2023-12-20T08:13:34;12.23;;;11.63;;
2544;SDS011;36212;48.838;9.142;2023-12-20T08:16:06;11.73;;;11.15;;
2544;SDS011;36212;48.838;9.142;2023-12-20T08:18:39;10.65;;;10.10;;
2544;SDS011;36212;48.838;9.142;2023-12-20T08:21:12;11.60;;;11.00;;
2544;SDS011;36212;48.838;9.142;2023-12-20T08:23:46;12.43;;;11.68;;
2544;SDS011;36212;48.838;9.142;2023-12-20T08:26:20;11.20;;;10.60;;
2544;SDS011;36212;48.838;9.142;2023-12-20T08:28:54;12.43;;;11.73;;
2544;SDS011;36212;48.838;9.142;2023-12-20T08:31:30;11.63;;;10.93;;
2544;SDS011;36212;48.838;9.142;2023-12-20T08:34:03;11.10;;;10.60;;
2544;SDS011;36212;48.838;9.142;2023-12-20T08:36:42;9.88;;;9.38;;
2544;SDS011;36212;48.838;9.142;2023-12-20T08:39:14;10.27;;;9.77;;
2544;SDS011;36212;48.838;9.142;2023-12-20T08:41:48;10.23;;;9.75;;
2544;SDS011;36212;48.838;9.142;2023-12-20T08:44:20;11.40;;;10.70;;
2544;SDS011;36212;48.838;9.142;2023-12-20T08:46:54;11.73;;;10.70;;
2544;SDS011;36212;48.838;9.142;2023-12-20T08:49:29;11.45;;;10.93;;
2544;SDS011;36212;48.838;9.142;2023-12-20T08:52:02;10.88;;;10.25;;
2544;SDS011;36212;48.838;9.142;2023-12-20T08:54:35;12.27;;;11.57;;
2544;SDS011;36212;48.838;9.142;2023-12-20T08:57:08;11.38;;;10.68;;
2544;SDS011;36212;48.838;9.142;2023-12-20T08:59:40;10.85;;;10.25;;
2544;SDS011;36212;48.838;9.142;2023-12-20T09:02:12;11.60;;;10.95;;
2544;SDS011;36212;48.838;9.142;2023-12-20T09:04:46;11.13;;;10.52;;
2544;SDS011;36212;48.838;9.142;2023-12-20T09:09:55;10.52;;;9.98;;
2544;SDS011;36212;48.838;9.142;2023-12-20T09:12:28;9.75;;;9.15;;
2544;SDS011;36212;48.838;9.142;2023-12-20T09:15:00;9.93;;;9.43;;
2544;SDS011;36212;48.838;9.142;2023-12-20T09:17:34;9.68;;;9.18;;
2544;SDS011;36212;48.838;9.142;2023-12-20T09:20:07;8.68;;;8.25;;
2544;SDS011;36212;48.838;9.142;2023-12-20T09:22:40;8.88;;;8.38;;
2544;SDS011;36212;48.838;9.142;2023-12-20T09:25:13;9.95;;;8.95;;
2544;SDS011;36212;48.838;9.142;2023-12-20T09:27:48;9.13;;;8.30;;
2544;SDS011;36212;48.838;9.142;2023-12-20T09:30:20;6.90;;;6.60;;
2544;SDS011;36212;48.838;9.142;2023-12-20T09:32:59;6.82;;;6.43;;
2544;SDS011;36212;48.838;9.142;2023-12-20T09:35:32;6.05;;;5.75;;
2544;SDS011;36212;48.838;9.142;2023-12-20T09:38:04;5.90;;;5.55;;
2544;SDS011;36212;48.838;9.142;2023-12-20T09:40:37;6.82;;;6.30;;
2544;SDS011;36212;48.838;9.142;2023-12-20T09:43:14;7.22;;;4.35;;
2544;SDS011;36212;48.838;9.142;2023-12-20T09:45:53;4.13;;;3.92;;
2544;SDS011;36212;48.838;9.142;2023-12-20T09:48:35;4.90;;;4.50;;
2544;SDS011;36212;48.838;9.142;2023-12-20T09:51:09;5.90;;;3.75;;
2544;SDS011;36212;48.838;9.142;2023-12-20T09:53:43;5.50;;;4.25;;
2544;SDS011;36212;48.838;9.142;2023-12-20T09:56:17;4.20;;;3.65;;
2544;SDS011;36212;48.838;9.142;2023-12-20T09:58:49;5.53;;;4.18;;
2544;SDS011;36212;48.838;9.142;2023-12-20T10:01:22;5.32;;;3.50;;
2544;SDS011;36212;48.838;9.142;2023-12-20T10:03:55;6.22;;;3.50;;
2544;SDS011;36212;48.838;9.142;2023-12-20T10:06:31;3.13;;;2.92;;
2544;SDS011;36212;48.838;9.142;2023-12-20T10:09:03;5.90;;;3.72;;
2544;SDS011;36212;48.838;9.142;2023-12-20T10:11:36;5.20;;;4.07;;
2544;SDS011;36212;48.838;9.142;2023-12-20T10:14:10;4.18;;;3.80;;
2544;SDS011;36212;48.838;9.142;2023-12-20T10:16:43;4.38;;;3.97;;
2544;SDS011;36212;48.838;9.142;2023-12-20T10:19:17;4.18;;;3.85;;
2544;SDS011;36212;48.838;9.142;2023-12-20T10:21:52;4.35;;;4.05;;
2544;SDS011;36212;48.838;9.142;2023-12-20T10:24:25;4.35;;;4.07;;
2544;SDS011;36212;48.838;9.142;2023-12-20T10:27:02;4.82;;;3.90;;
2544;SDS011;36212;48.838;9.142;2023-12-20T10:29:37;4.00;;;3.80;;
2544;SDS011;36212;48.838;9.142;2023-12-20T10:32:26;4.35;;;3.45;;
2544;SDS011;36212;48.838;9.142;2023-12-20T10:35:00;4.00;;;3.80;;
2544;SDS011;36212;48.838;9.142;2023-12-20T10:37:36;5.53;;;4.30;;
2544;SDS011;36212;48.838;9.142;2023-12-20T10:40:09;4.53;;;4.25;;
2544;SDS011;36212;48.838;9.142;2023-12-20T10:42:43;3.88;;;3.53;;
2544;SDS011;36212;48.838;9.142;2023-12-20T10:45:18;4.20;;;4.00;;
2544;SDS011;36212;48.838;9.142;2023-12-20T10:47:51;6.13;;;4.30;;
2544;SDS011;36212;48.838;9.142;2023-12-20T10:50:23;4.00;;;3.60;;
2544;SDS011;36212;48.838;9.142;2023-12-20T10:52:57;4.10;;;3.80;;
2544;SDS011;36212;48.838;9.142;2023-12-20T10:55:31;4.13;;;3.83;;
2544;SDS011;36212;48.838;9.142;2023-12-20T10:58:08;5.38;;;4.95;;
2544;SDS011;36212;48.838;9.142;2023-12-20T11:00:42;4.05;;;3.85;;
2544;SDS011;36212;48.838;9.142;2023-12-20T11:03:19;8.30;;;4.95;;
2544;SDS011;36212;48.838;9.142;2023-12-20T11:06:05;4.38;;;4.07;;
2544;SDS011;36212;48.838;9.142;2023-12-20T11:14:57;4.30;;;4.00;;
2544;SDS011;36212;48.838;9.142;2023-12-20T11:18:16;4.40;;;4.10;;
2544;SDS011;36212;48.838;9.142;2023-12-20T11:20:51;4.22;;;3.95;;
2544;SDS011;36212;48.838;9.142;2023-12-20T11:23:32;4.45;;;4.13;;
2544;SDS011;36212;48.838;9.142;2023-12-20T11:26:07;3.90;;;3.60;;
2544;SDS011;36212;48.838;9.142;2023-12-20T11:28:40;4.18;;;3.85;;
2544;SDS011;36212;48.838;9.142;2023-12-20T11:31:13;5.03;;;4.32;;
2544;SDS011;36212;48.838;9.142;2023-12-20T11:33:47;5.85;;;4.13;;
2544;SDS011;36212;48.838;9.142;2023-12-20T11:36:21;4.53;;;4.18;;
2544;SDS011;36212;48.838;9.142;2023-12-20T11:39:02;5.20;;;4.63;;
2544;SDS011;36212;48.838;9.142;2023-12-20T11:41:51;4.65;;;4.35;;
2544;SDS011;36212;48.838;9.142;2023-12-20T11:44:25;5.60;;;5.13;;
2544;SDS011;36212;48.838;9.142;2023-12-20T11:47:00;5.80;;;4.35;;
2544;SDS011;36212;48.838;9.142;2023-12-20T11:49:33;4.30;;;4.00;;
2544;SDS011;36212;48.838;9.142;2023-12-20T11:52:05;4.93;;;4.60;;
2544;SDS011;36212;48.838;9.142;2023-12-20T11:54:38;5.88;;;4.68;;
2544;SDS011;36212;48.838;9.142;2023-12-20T11:57:10;4.88;;;4.45;;
2544;SDS011;36212;48.838;9.142;2023-12-20T11:59:42;4.88;;;4.40;;
2544;SDS011;36212;48.838;9.142;2023-12-20T12:02:15;5.80;;;5.32;;
2544;SDS011;36212;48.838;9.142;2023-12-20T12:04:50;7.32;;;4.68;;
2544;SDS011;36212;48.838;9.142;2023-12-20T12:07:23;5.10;;;4.80;;
2544;SDS011;36212;48.838;9.142;2023-12-20T12:09:56;5.85;;;5.10;;
2544;SDS011;36212;48.838;9.142;2023-12-20T12:12:28;5.05;;;4.57;;
2544;SDS011;36212;48.838;9.142;2023-12-20T12:15:02;5.63;;;5.18;;
2544;SDS011;36212;48.838;9.142;2023-12-20T12:17:36;5.10;;;4.78;;
2544;SDS011;36212;48.838;9.142;2023-12-20T12:20:09;7.05;;;5.05;;
2544;SDS011;36212;48.838;9.142;2023-12-20T12:22:42;5.13;;;4.80;;
2544;SDS011;36212;48.838;9.142;2023-12-20T12:25:28;5.15;;;4.38;;
2544;SDS011;36212;48.838;9.142;2023-12-20T12:28:05;5.18;;;4.78;;
2544;SDS011;36212;48.838;9.142;2023-12-20T12:30:38;6.18;;;5.78;;
2544;SDS011;36212;48.838;9.142;2023-12-20T12:33:28;5.25;;;4.85;;
2544;SDS011;36212;48.838;9.142;2023-12-20T12:36:01;5.53;;;4.40;;
2544;SDS011;36212;48.838;9.142;2023-12-20T12:38:37;7.07;;;4.80;;
2544;SDS011;36212;48.838;9.142;2023-12-20T12:41:12;5.00;;;4.80;;
2544;SDS011;36212;48.838;9.142;2023-12-20T12:43:45;5.60;;;5.30;;
2544;SDS011;36212;48.838;9.142;2023-12-20T12:46:18;5.60;;;4.90;;
2544;SDS011;36212;48.838;9.142;2023-12-20T12:48:51;6.18;;;5.60;;
2544;SDS011;36212;48.838;9.142;2023-12-20T12:51:24;5.65;;;5.25;;
2544;SDS011;36212;48.838;9.142;2023-12-20T12:53:56;9.68;;;5.88;;
2544;SDS011;36212;48.838;9.142;2023-12-20T12:56:29;5.03;;;4.82;;
2544;SDS011;36212;48.838;9.142;2023-12-20T12:59:02;7.25;;;5.75;;
2544;SDS011;36212;48.838;9.142;2023-12-20T13:01:36;5.43;;;5.03;;
2544;SDS011;36212;48.838;9.142;2023-12-20T13:04:09;5.70;;;5.20;;
2544;SDS011;36212;48.838;9.142;2023-12-20T13:06:43;5.10;;;4.80;;
2544;SDS011;36212;48.838;9.142;2023-12-20T13:09:17;7.25;;;5.88;;
2544;SDS011;36212;48.838;9.142;2023-12-20T13:11:51;5.70;;;5.30;;
2544;SDS011;36212;48.838;9.142;2023-12-20T13:14:23;6.00;;;5.43;;
2544;SDS011;36212;48.838;9.142;2023-12-20T13:16:56;5.28;;;4.97;;
2544;SDS011;36212;48.838;9.142;2023-12-20T13:19:29;5.30;;;5.10;;
2544;SDS011;36212;48.838;9.142;2023-12-20T13:22:02;8.60;;;4.57;;
2544;SDS011;36212;48.838;9.142;2023-12-20T13:24:39;5.95;;;5.07;;
2544;SDS011;36212;48.838;9.142;2023-12-20T13:27:14;5.05;;;4.75;;
2544;SDS011;36212;48.838;9.142;2023-12-20T13:29:47;6.63;;;4.82;;
2544;SDS011;36212;48.838;9.142;2023-12-20T13:32:22;5.13;;;4.63;;
2544;SDS011;36212;48.838;9.142;2023-12-20T13:34:57;5.00;;;4.57;;
2544;SDS011;36212;48.838;9.142;2023-12-20T13:37:29;5.65;;;4.20;;
2544;SDS011;36212;48.838;9.142;2023-12-20T13:40:03;4.85;;;4.65;;
2544;SDS011;36212;48.838;9.142;2023-12-20T13:42:37;5.40;;;5.00;;
2544;SDS011;36212;48.838;9.142;2023-12-20T13:45:10;4.80;;;4.40;;
2544;SDS011;36212;48.838;9.142;2023-12-20T13:47:42;4.90;;;4.50;;
2544;SDS011;36212;48.838;9.142;2023-12-20T13:50:38;5.15;;;4.75;;
2544;SDS011;36212;48.838;9.142;2023-12-20T13:53:21;4.78;;;4.47;;
2544;SDS011;36212;48.838;9.142;2023-12-20T13:56:38;6.13;;;5.57;;
2544;SDS011;36212;48.838;9.142;2023-12-20T13:59:28;4.53;;;4.32;;
2544;SDS011;36212;48.838;9.142;2023-12-20T14:02:00;4.75;;;4.45;;
2544;SDS011;36212;48.838;9.142;2023-12-20T14:04:36;5.63;;;5.22;;
2544;SDS011;36212;48.838;9.142;2023-12-20T14:07:14;5.88;;;5.32;;
2544;SDS011;36212;48.838;9.142;2023-12-20T14:09:47;9.68;;;4.95;;
2544;SDS011;36212;48.838;9.142;2023-12-20T14:12:20;5.30;;;4.90;;
2544;SDS011;36212;48.838;9.142;2023-12-20T14:22:24;5.88;;;4.47;;
2544;SDS011;36212;48.838;9.142;2023-12-20T14:25:05;5.13;;;4.00;;
2544;SDS011;36212;48.838;9.142;2023-12-20T14:27:58;5.80;;;4.18;;
2544;SDS011;36212;48.838;9.142;2023-12-20T14:30:51;4.72;;;4.28;;
2544;SDS011;36212;48.838;9.142;2023-12-20T14:33:24;4.93;;;4.50;;
2544;SDS011;36212;48.838;9.142;2023-12-20T14:35:57;5.88;;;5.38;;
2544;SDS011;36212;48.838;9.142;2023-12-20T14:41:42;5.40;;;5.05;;
2544;SDS011;36212;48.838;9.142;2023-12-20T14:44:28;4.90;;;4.63;;
2544;SDS011;36212;48.838;9.142;2023-12-20T14:47:01;5.03;;;4.60;;
2544;SDS011;36212;48.838;9.142;2023-12-20T14:53:20;6.90;;;4.50;;
2544;SDS011;36212;48.838;9.142;2023-12-20T14:55:56;6.60;;;4.40;;
2544;SDS011;36212;48.838;9.142;2023-12-20T14:58:30;4.80;;;4.50;;
2544;SDS011;36212;48.838;9.142;2023-12-20T15:01:03;4.32;;;3.95;;
2544;SDS011;36212;48.838;9.142;2023-12-20T15:03:39;6.68;;;6.07;;
2544;SDS011;36212;48.838;9.142;2023-12-20T15:06:13;4.70;;;4.28;;
2544;SDS011;36212;48.838;9.142;2023-12-20T15:08:46;9.50;;;4.72;;
2544;SDS011;36212;48.838;9.142;2023-12-20T15:11:18;5.70;;;5.28;;
2544;SDS011;36212;48.838;9.142;2023-12-20T15:13:50;4.50;;;4.30;;
2544;SDS011;36212;48.838;9.142;2023-12-20T15:16:28;4.40;;;4.05;;
2544;SDS011;36212;48.838;9.142;2023-12-20T15:19:01;4.70;;;4.30;;
2544;SDS011;36212;48.838;9.142;2023-12-20T15:21:36;5.10;;;4.70;;
2544;SDS011;36212;48.838;9.142;2023-12-20T15:24:17;5.30;;;4.82;;
2544;SDS011;36212;48.838;9.142;2023-12-20T15:27:08;4.72;;;4.43;;
2544;SDS011;36212;48.838;9.142;2023-12-20T15:29:42;4.10;;;3.80;;
2544;SDS011;36212;48.838;9.142;2023-12-20T15:32:15;6.32;;;4.60;;
2544;SDS011;36212;48.838;9.142;2023-12-20T15:34:50;5.35;;;4.82;;
2544;SDS011;36212;48.838;9.142;2023-12-20T15:37:24;4.90;;;4.50;;
2544;SDS011;36212;48.838;9.142;2023-12-20T15:39:58;5.05;;;4.63;;
2544;SDS011;36212;48.838;9.142;2023-12-20T15:42:34;4.97;;;4.57;;
2544;SDS011;36212;48.838;9.142;2023-12-20T15:45:09;4.82;;;4.40;;
2544;SDS011;36212;48.838;9.142;2023-12-20T15:47:42;4.85;;;4.45;;
2544;SDS011;36212;48.838;9.142;2023-12-20T15:50:17;4.40;;;4.15;;
2544;SDS011;36212;48.838;9.142;2023-12-20T15:52:50;4.57;;;4.22;;
2544;SDS011;36212;48.838;9.142;2023-12-20T15:55:26;6.43;;;5.93;;
2544;SDS011;36212;48.838;9.142;2023-12-20T15:58:47;7.57;;;4.90;;
2544;SDS011;36212;48.838;9.142;2023-12-20T16:01:25;5.53;;;5.03;;
2544;SDS011;36212;48.838;9.142;2023-12-20T16:03:59;6.22;;;4.63;;
2544;SDS011;36212;48.838;9.142;2023-12-20T16:06:32;6.28;;;5.68;;
2544;SDS011;36212;48.838;9.142;2023-12-20T16:09:07;5.75;;;5.25;;
2544;SDS011;36212;48.838;9.142;2023-12-20T16:11:43;4.57;;;4.30;;
2544;SDS011;36212;48.838;9.142;2023-12-20T16:14:20;4.70;;;4.50;;
2544;SDS011;36212;48.838;9.142;2023-12-20T16:16:55;4.07;;;3.88;;
2544;SDS011;36212;48.838;9.142;2023-12-20T16:19:30;4.88;;;4.68;;
2544;SDS011;36212;48.838;9.142;2023-12-20T16:22:03;5.22;;;4.82;;
2544;SDS011;36212;48.838;9.142;2023-12-20T16:24:38;5.35;;;4.95;;
2544;SDS011;36212;48.838;9.142;2023-12-20T16:27:11;5.53;;;5.13;;
2544;SDS011;36212;48.838;9.142;2023-12-20T16:29:44;5.60;;;5.10;;
2544;SDS011;36212;48.838;9.142;2023-12-20T16:32:21;5.25;;;4.68;;
2544;SDS011;36212;48.838;9.142;2023-12-20T16:34:54;6.72;;;4.47;;
2544;SDS011;36212;48.838;9.142;2023-12-20T16:37:27;9.05;;;4.75;;
2544;SDS011;36212;48.838;9.142;2023-12-20T16:40:00;6.10;;;5.50;;
2544;SDS011;36212;48.838;9.142;2023-12-20T16:42:35;5.20;;;4.75;;
2544;SDS011;36212;48.838;9.142;2023-12-20T16:45:11;4.32;;;4.13;;
2544;SDS011;36212;48.838;9.142;2023-12-20T16:47:58;3.88;;;3.67;;
2544;SDS011;36212;48.838;9.142;2023-12-20T16:50:30;5.30;;;4.50;;
2544;SDS011;36212;48.838;9.142;2023-12-20T16:56:12;4.20;;;4.00;;
2544;SDS011;36212;48.838;9.142;2023-12-20T16:59:09;4.90;;;4.60;;
2544;SDS011;36212;48.838;9.142;2023-12-20T17:08:22;5.05;;;4.60;;
2544;SDS011;36212;48.838;9.142;2023-12-20T17:11:38;4.60;;;4.30;;
2544;SDS011;36212;48.838;9.142;2023-12-20T17:14:12;4.10;;;3.80;;
2544;SDS011;36212;48.838;9.142;2023-12-20T17:16:45;5.20;;;4.88;;
2544;SDS011;36212;48.838;9.142;2023-12-20T17:19:25;5.13;;;4.63;;
2544;SDS011;36212;48.838;9.142;2023-12-20T17:22:06;5.80;;;4.65;;
2544;SDS011;36212;48.838;9.142;2023-12-20T17:24:46;5.30;;;4.82;;
2544;SDS011;36212;48.838;9.142;2023-12-20T17:27:19;4.00;;;3.80;;
2544;SDS011;36212;48.838;9.142;2023-12-20T17:29:52;4.03;;;3.72;;
2544;SDS011;36212;48.838;9.142;2023-12-20T17:32:25;4.30;;;4.00;;
2544;SDS011;36212;48.838;9.142;2023-12-20T17:34:58;4.10;;;3.80;;
2544;SDS011;36212;48.838;9.142;2023-12-20T17:37:31;4.38;;;4.07;;
2544;SDS011;36212;48.838;9.142;2023-12-20T17:40:04;4.20;;;4.00;;
2544;SDS011;36212;48.838;9.142;2023-12-20T17:42:38;3.90;;;3.70;;
2544;SDS011;36212;48.838;9.142;2023-12-20T17:45:11;3.90;;;3.70;;
2544;SDS011;36212;48.838;9.142;2023-12-20T17:47:46;4.20;;;4.00;;
2544;SDS011;36212;48.838;9.142;2023-12-20T17:50:24;3.72;;;3.40;;
2544;SDS011;36212;48.838;9.142;2023-12-20T17:53:03;4.32;;;4.00;;
2544;SDS011;36212;48.838;9.142;2023-12-20T17:55:41;4.32;;;4.03;;
2544;SDS011;36212;48.838;9.142;2023-12-20T17:58:18;4.22;;;3.95;;
2544;SDS011;36212;48.838;9.142;2023-12-20T18:00:58;4.63;;;4.22;;
2544;SDS011;36212;48.838;9.142;2023-12-20T18:03:35;4.38;;;4.05;;
2544;SDS011;36212;48.838;9.142;2023-12-20T18:06:16;4.80;;;4.45;;
2544;SDS011;36212;48.838;9.142;2023-12-20T18:08:56;4.20;;;4.00;;
2544;SDS011;36212;48.838;9.142;2023-12-20T18:11:35;3.05;;;2.90;;
2544;SDS011;36212;48.838;9.142;2023-12-20T18:14:13;4.00;;;3.80;;
2544;SDS011;36212;48.838;9.142;2023-12-20T18:16:51;4.53;;;4.22;;
